DBLBH EKCH-LOWW
Flight info
| Callsign | DBLBH |
|---|---|
| Flight time | 1h 31m |
| Altitude | 45000 |
| Route | SALLO M44 KOGIM DCT LUROS DCT HDO DCT EVIKU DCT BITSI DCT MIKOV |
| Aircraft | C700/M-SBDGHM1RWXY/LB2 |
Departure
| Time | 2026-04-22 18:09 |
|---|---|
| Airport | Copenhagen Kastrup Airport (EKCH) |
Arrival
| Time | 2026-04-22 19:40 |
|---|---|
| Airport | Vienna International Airport (LOWW) |
| Time | Latitude | Longitude | Altitude | Speed | Heading |
|---|---|---|---|---|---|
| 2026-04-22 17:53 | 55.62214 | 12.63002 | 18 ft | 0 kts | 319° |
| 2026-04-22 18:04 | 55.62215 | 12.63001 | 20 ft | 1 kts | 329° |
| 2026-04-22 18:04 | 55.62280 | 12.62990 | 18 ft | 21 kts | 7° |
| 2026-04-22 18:05 | 55.62328 | 12.63039 | 18 ft | 1 kts | 112° |
| 2026-04-22 18:05 | 55.62304 | 12.63078 | 19 ft | 10 kts | 127° |
| 2026-04-22 18:05 | 55.62272 | 12.63295 | 18 ft | 28 kts | 84° |
| 2026-04-22 18:05 | 55.62278 | 12.63729 | 18 ft | 42 kts | 89° |
| 2026-04-22 18:06 | 55.62262 | 12.64299 | 16 ft | 50 kts | 118° |
| 2026-04-22 18:06 | 55.61968 | 12.64486 | 20 ft | 44 kts | 170° |
| 2026-04-22 18:06 | 55.61673 | 12.64549 | 18 ft | 40 kts | 201° |
| 2026-04-22 18:06 | 55.61452 | 12.64308 | 18 ft | 36 kts | 214° |
| 2026-04-22 18:07 | 55.61249 | 12.64069 | 20 ft | 34 kts | 212° |
| 2026-04-22 18:07 | 55.61052 | 12.63846 | 19 ft | 33 kts | 214° |
| 2026-04-22 18:07 | 55.60888 | 12.63652 | 19 ft | 32 kts | 213° |
| 2026-04-22 18:07 | 55.60704 | 12.63451 | 19 ft | 31 kts | 213° |
| 2026-04-22 18:08 | 55.60539 | 12.63210 | 19 ft | 30 kts | 221° |
| 2026-04-22 18:08 | 55.60369 | 12.63225 | 19 ft | 30 kts | 127° |
| 2026-04-22 18:08 | 55.60453 | 12.63522 | 18 ft | 49 kts | 41° |
| 2026-04-22 18:08 | 55.60965 | 12.64296 | 42 ft | 140 kts | 36° |
| 2026-04-22 18:09 | 55.61803 | 12.65589 | 772 ft | 175 kts | 37° |
| 2026-04-22 18:09 | 55.62534 | 12.66733 | 1607 ft | 191 kts | 35° |
| 2026-04-22 18:09 | 55.63568 | 12.68343 | 2921 ft | 206 kts | 34° |
| 2026-04-22 18:09 | 55.64587 | 12.69922 | 4029 ft | 229 kts | 35° |
| 2026-04-22 18:10 | 55.65889 | 12.71779 | 5267 ft | 251 kts | 34° |
| 2026-04-22 18:10 | 55.67089 | 12.74085 | 6997 ft | 259 kts | 50° |
| 2026-04-22 18:10 | 55.67894 | 12.76950 | 8661 ft | 271 kts | 66° |
| 2026-04-22 18:10 | 55.68195 | 12.80020 | 10192 ft | 283 kts | 82° |
| 2026-04-22 18:11 | 55.67999 | 12.83308 | 11353 ft | 312 kts | 100° |
| 2026-04-22 18:11 | 55.67001 | 12.86955 | 12420 ft | 348 kts | 123° |
| 2026-04-22 18:11 | 55.65539 | 12.89471 | 13274 ft | 375 kts | 144° |
| 2026-04-22 18:11 | 55.63913 | 12.90848 | 14373 ft | 379 kts | 161° |
| 2026-04-22 18:12 | 55.61553 | 12.91444 | 15785 ft | 386 kts | 181° |
| 2026-04-22 18:12 | 55.58947 | 12.90269 | 17276 ft | 393 kts | 206° |
| 2026-04-22 18:12 | 55.57422 | 12.88506 | 18193 ft | 398 kts | 219° |
| 2026-04-22 18:12 | 55.54836 | 12.84227 | 19497 ft | 410 kts | 220° |
| 2026-04-22 18:13 | 55.52448 | 12.81444 | 20533 ft | 415 kts | 207° |
| 2026-04-22 18:13 | 55.49800 | 12.79602 | 21433 ft | 420 kts | 194° |
| 2026-04-22 18:13 | 55.46920 | 12.78722 | 22400 ft | 422 kts | 181° |
| 2026-04-22 18:13 | 55.43983 | 12.78882 | 23380 ft | 423 kts | 170° |
| 2026-04-22 18:14 | 55.41035 | 12.79443 | 24261 ft | 429 kts | 170° |
| 2026-04-22 18:14 | 55.38053 | 12.80060 | 25097 ft | 432 kts | 168° |
| 2026-04-22 18:14 | 55.35134 | 12.81243 | 25901 ft | 431 kts | 158° |
| 2026-04-22 18:14 | 55.32355 | 12.83214 | 26677 ft | 431 kts | 149° |
| 2026-04-22 18:15 | 55.29796 | 12.85920 | 27448 ft | 430 kts | 140° |
| 2026-04-22 18:15 | 55.27440 | 12.89173 | 28285 ft | 431 kts | 136° |
| 2026-04-22 18:15 | 55.25170 | 12.92370 | 29042 ft | 435 kts | 136° |
| 2026-04-22 18:15 | 55.22800 | 12.95663 | 29840 ft | 439 kts | 136° |
| 2026-04-22 18:16 | 55.20418 | 12.98966 | 30549 ft | 442 kts | 136° |
| 2026-04-22 18:16 | 55.18003 | 13.02331 | 31199 ft | 445 kts | 135° |
| 2026-04-22 18:16 | 55.15584 | 13.05693 | 32068 ft | 441 kts | 135° |
| 2026-04-22 18:16 | 55.13192 | 13.09006 | 32929 ft | 438 kts | 135° |
| 2026-04-22 18:17 | 55.10814 | 13.12297 | 33714 ft | 435 kts | 135° |
| 2026-04-22 18:17 | 55.08440 | 13.15578 | 34449 ft | 433 kts | 135° |
| 2026-04-22 18:17 | 55.06082 | 13.18834 | 35066 ft | 431 kts | 135° |
| 2026-04-22 18:17 | 55.03736 | 13.22063 | 35712 ft | 429 kts | 135° |
| 2026-04-22 18:18 | 55.01392 | 13.25291 | 36181 ft | 431 kts | 135° |
| 2026-04-22 18:18 | 54.99037 | 13.28529 | 36638 ft | 431 kts | 135° |
| 2026-04-22 18:18 | 54.96678 | 13.31762 | 37119 ft | 431 kts | 136° |
| 2026-04-22 18:18 | 54.94227 | 13.34787 | 37552 ft | 436 kts | 142° |
| 2026-04-22 18:19 | 54.91672 | 13.37138 | 37975 ft | 442 kts | 149° |
| 2026-04-22 18:19 | 54.88775 | 13.39025 | 38415 ft | 448 kts | 157° |
| 2026-04-22 18:19 | 54.85714 | 13.40237 | 38840 ft | 454 kts | 165° |
| 2026-04-22 18:19 | 54.82594 | 13.41057 | 39144 ft | 454 kts | 165° |
| 2026-04-22 18:20 | 54.79512 | 13.41882 | 39398 ft | 454 kts | 165° |
| 2026-04-22 18:20 | 54.76379 | 13.42737 | 39667 ft | 455 kts | 166° |
| 2026-04-22 18:20 | 54.73619 | 13.43479 | 39907 ft | 455 kts | 166° |
| 2026-04-22 18:20 | 54.70488 | 13.44309 | 40147 ft | 456 kts | 166° |
| 2026-04-22 18:21 | 54.67415 | 13.45130 | 40366 ft | 456 kts | 166° |
| 2026-04-22 18:21 | 54.64267 | 13.45974 | 40587 ft | 457 kts | 166° |
| 2026-04-22 18:21 | 54.61124 | 13.46815 | 40817 ft | 458 kts | 167° |
| 2026-04-22 18:21 | 54.57966 | 13.47657 | 41041 ft | 459 kts | 167° |
| 2026-04-22 18:22 | 54.55225 | 13.48385 | 41239 ft | 459 kts | 167° |
| 2026-04-22 18:22 | 54.52066 | 13.49224 | 41452 ft | 460 kts | 167° |
| 2026-04-22 18:22 | 54.49283 | 13.49962 | 41642 ft | 461 kts | 167° |
| 2026-04-22 18:22 | 54.46559 | 13.50658 | 41805 ft | 462 kts | 168° |
| 2026-04-22 18:23 | 54.43362 | 13.51445 | 41988 ft | 463 kts | 168° |
| 2026-04-22 18:23 | 54.40165 | 13.52244 | 42208 ft | 464 kts | 168° |
| 2026-04-22 18:23 | 54.38165 | 13.52755 | 42333 ft | 464 kts | 168° |
| 2026-04-22 18:24 | 54.31815 | 13.54362 | 42720 ft | 465 kts | 168° |
| 2026-04-22 18:24 | 54.28616 | 13.55190 | 42911 ft | 466 kts | 167° |
| 2026-04-22 18:24 | 54.22719 | 13.56885 | 43264 ft | 467 kts | 167° |
| 2026-04-22 18:25 | 54.21699 | 13.57169 | 43315 ft | 467 kts | 168° |
| 2026-04-22 18:25 | 54.18920 | 13.57916 | 43457 ft | 468 kts | 168° |
| 2026-04-22 18:25 | 54.15695 | 13.58775 | 43646 ft | 469 kts | 168° |
| 2026-04-22 18:26 | 54.09250 | 13.60558 | 44012 ft | 470 kts | 168° |
| 2026-04-22 18:26 | 54.06018 | 13.61439 | 44196 ft | 470 kts | 168° |
| 2026-04-22 18:26 | 54.03578 | 13.62098 | 44321 ft | 470 kts | 168° |
| 2026-04-22 18:26 | 54.00925 | 13.62821 | 44464 ft | 471 kts | 168° |
| 2026-04-22 18:27 | 53.97630 | 13.63715 | 44644 ft | 471 kts | 168° |
| 2026-04-22 18:27 | 53.94388 | 13.64594 | 44785 ft | 472 kts | 168° |
| 2026-04-22 18:27 | 53.91326 | 13.65425 | 44927 ft | 473 kts | 168° |
| 2026-04-22 18:27 | 53.88079 | 13.66311 | 45084 ft | 473 kts | 168° |
| 2026-04-22 18:28 | 53.83115 | 13.67642 | 45232 ft | 475 kts | 169° |
| 2026-04-22 18:28 | 53.77377 | 13.69187 | 45253 ft | 481 kts | 168° |
| 2026-04-22 18:29 | 53.70717 | 13.70979 | 45247 ft | 488 kts | 168° |
| 2026-04-22 18:29 | 53.65235 | 13.72443 | 45250 ft | 493 kts | 169° |
| 2026-04-22 18:30 | 53.55677 | 13.74995 | 45247 ft | 500 kts | 169° |
| 2026-04-22 18:31 | 53.49373 | 13.76668 | 45244 ft | 499 kts | 169° |
| 2026-04-22 18:31 | 53.42717 | 13.78432 | 45241 ft | 497 kts | 169° |
| 2026-04-22 18:32 | 53.35914 | 13.80228 | 45241 ft | 495 kts | 169° |
| 2026-04-22 18:32 | 53.30559 | 13.81637 | 45244 ft | 494 kts | 169° |
| 2026-04-22 18:33 | 53.23809 | 13.83411 | 45246 ft | 496 kts | 169° |
| 2026-04-22 18:33 | 53.16964 | 13.85202 | 45250 ft | 499 kts | 169° |
| 2026-04-22 18:34 | 53.12113 | 13.86468 | 45258 ft | 501 kts | 169° |
| 2026-04-22 18:34 | 53.05997 | 13.88059 | 45254 ft | 501 kts | 169° |
| 2026-04-22 18:35 | 53.00286 | 13.89541 | 45259 ft | 499 kts | 169° |
| 2026-04-22 18:35 | 52.98139 | 13.90098 | 45258 ft | 498 kts | 169° |
| 2026-04-22 18:36 | 52.92182 | 13.91638 | 45254 ft | 496 kts | 169° |
| 2026-04-22 18:36 | 52.85577 | 13.93342 | 45250 ft | 496 kts | 169° |
| 2026-04-22 18:37 | 52.80972 | 13.94526 | 45253 ft | 498 kts | 169° |
| 2026-04-22 18:37 | 52.75258 | 13.95992 | 45256 ft | 501 kts | 169° |
| 2026-04-22 18:38 | 52.67844 | 13.97888 | 45260 ft | 502 kts | 169° |
| 2026-04-22 18:38 | 52.61554 | 13.99491 | 45260 ft | 499 kts | 169° |
| 2026-04-22 18:39 | 52.53296 | 14.01591 | 45253 ft | 495 kts | 169° |
| 2026-04-22 18:39 | 52.47617 | 14.03027 | 45257 ft | 497 kts | 169° |
| 2026-04-22 18:40 | 52.41263 | 14.04634 | 45260 ft | 500 kts | 169° |
| 2026-04-22 18:40 | 52.34631 | 14.06303 | 45257 ft | 503 kts | 169° |
| 2026-04-22 18:41 | 52.28210 | 14.07915 | 45259 ft | 502 kts | 169° |
| 2026-04-22 18:41 | 52.23290 | 14.09147 | 45255 ft | 500 kts | 169° |
| 2026-04-22 18:42 | 52.17685 | 14.10548 | 45257 ft | 497 kts | 169° |
| 2026-04-22 18:42 | 52.11748 | 14.12027 | 45247 ft | 498 kts | 169° |
| 2026-04-22 18:43 | 52.07203 | 14.13158 | 45256 ft | 500 kts | 169° |
| 2026-04-22 18:43 | 52.01348 | 14.14610 | 45260 ft | 502 kts | 169° |
| 2026-04-22 18:44 | 51.94493 | 14.16304 | 45262 ft | 503 kts | 169° |
| 2026-04-22 18:45 | 51.88504 | 14.17742 | 45257 ft | 500 kts | 171° |
| 2026-04-22 18:45 | 51.83579 | 14.18721 | 45255 ft | 499 kts | 171° |
| 2026-04-22 18:46 | 51.78282 | 14.19807 | 45253 ft | 499 kts | 171° |
| 2026-04-22 18:46 | 51.73804 | 14.20728 | 45255 ft | 501 kts | 171° |
| 2026-04-22 18:47 | 51.67073 | 14.22081 | 45259 ft | 504 kts | 171° |
| 2026-04-22 18:47 | 51.60446 | 14.23428 | 45257 ft | 506 kts | 171° |
| 2026-04-22 18:48 | 51.54900 | 14.24543 | 45254 ft | 505 kts | 171° |
| 2026-04-22 18:48 | 51.48034 | 14.25925 | 45253 ft | 502 kts | 171° |
| 2026-04-22 18:49 | 51.41152 | 14.27305 | 45249 ft | 499 kts | 171° |
| 2026-04-22 18:49 | 51.35740 | 14.28387 | 45255 ft | 502 kts | 171° |
| 2026-04-22 18:50 | 51.28766 | 14.29778 | 45273 ft | 507 kts | 171° |
| 2026-04-22 18:50 | 51.21940 | 14.31134 | 45271 ft | 505 kts | 171° |
| 2026-04-22 18:51 | 51.16707 | 14.32172 | 45269 ft | 503 kts | 171° |
| 2026-04-22 18:51 | 51.11779 | 14.33147 | 45261 ft | 501 kts | 171° |
| 2026-04-22 18:52 | 51.08124 | 14.33869 | 45285 ft | 501 kts | 171° |
| 2026-04-22 18:53 | 51.03584 | 14.34766 | 45276 ft | 504 kts | 171° |
| 2026-04-22 18:53 | 50.99628 | 14.35544 | 45281 ft | 506 kts | 171° |
| 2026-04-22 18:54 | 50.93851 | 14.36680 | 45278 ft | 508 kts | 171° |
| 2026-04-22 18:54 | 50.88299 | 14.38564 | 45280 ft | 504 kts | 164° |
| 2026-04-22 18:55 | 50.82141 | 14.40858 | 45274 ft | 500 kts | 165° |
| 2026-04-22 18:55 | 50.77074 | 14.42724 | 45270 ft | 499 kts | 165° |
| 2026-04-22 18:56 | 50.71390 | 14.44843 | 45273 ft | 502 kts | 165° |
| 2026-04-22 18:56 | 50.66762 | 14.46546 | 45277 ft | 505 kts | 165° |
| 2026-04-22 18:57 | 50.61236 | 14.48579 | 45274 ft | 504 kts | 165° |
| 2026-04-22 18:57 | 50.54460 | 14.51072 | 45270 ft | 501 kts | 165° |
| 2026-04-22 18:58 | 50.50899 | 14.52445 | 45276 ft | 498 kts | 161° |
| 2026-04-22 18:58 | 50.46252 | 14.55562 | 45273 ft | 494 kts | 148° |
| 2026-04-22 18:59 | 50.41988 | 14.60384 | 45271 ft | 491 kts | 135° |
| 2026-04-22 18:59 | 50.37467 | 14.67234 | 45257 ft | 493 kts | 133° |
| 2026-04-22 19:00 | 50.33666 | 14.72969 | 45043 ft | 494 kts | 133° |
| 2026-04-22 19:00 | 50.30135 | 14.78300 | 44847 ft | 490 kts | 133° |
| 2026-04-22 19:01 | 50.27892 | 14.81684 | 44715 ft | 488 kts | 133° |
| 2026-04-22 19:01 | 50.26065 | 14.84433 | 44607 ft | 486 kts | 133° |
| 2026-04-22 19:01 | 50.23958 | 14.87596 | 44482 ft | 486 kts | 133° |
| 2026-04-22 19:01 | 50.21904 | 14.90680 | 44380 ft | 488 kts | 133° |
| 2026-04-22 19:02 | 50.19452 | 14.94358 | 44242 ft | 489 kts | 133° |
| 2026-04-22 19:02 | 50.17901 | 14.96680 | 44156 ft | 491 kts | 133° |
| 2026-04-22 19:02 | 50.15434 | 15.00368 | 44013 ft | 492 kts | 133° |
| 2026-04-22 19:02 | 50.13282 | 15.03581 | 43890 ft | 492 kts | 133° |
| 2026-04-22 19:03 | 50.09394 | 15.09374 | 43678 ft | 490 kts | 133° |
| 2026-04-22 19:03 | 50.07400 | 15.12342 | 43567 ft | 488 kts | 133° |
| 2026-04-22 19:03 | 50.04988 | 15.15926 | 43430 ft | 487 kts | 133° |
| 2026-04-22 19:04 | 50.02539 | 15.19559 | 43286 ft | 486 kts | 133° |
| 2026-04-22 19:04 | 50.00664 | 15.22337 | 43209 ft | 485 kts | 133° |
| 2026-04-22 19:04 | 49.98432 | 15.25641 | 43084 ft | 485 kts | 133° |
| 2026-04-22 19:04 | 49.96707 | 15.28192 | 42985 ft | 486 kts | 133° |
| 2026-04-22 19:05 | 49.92801 | 15.33954 | 42779 ft | 487 kts | 133° |
| 2026-04-22 19:05 | 49.88210 | 15.40712 | 42551 ft | 488 kts | 133° |
| 2026-04-22 19:06 | 49.86060 | 15.43869 | 42433 ft | 489 kts | 133° |
| 2026-04-22 19:06 | 49.83787 | 15.47203 | 42192 ft | 491 kts | 133° |
| 2026-04-22 19:06 | 49.82495 | 15.49099 | 41847 ft | 494 kts | 133° |
| 2026-04-22 19:07 | 49.78348 | 15.55164 | 40784 ft | 486 kts | 133° |
| 2026-04-22 19:07 | 49.76210 | 15.58282 | 40216 ft | 481 kts | 133° |
| 2026-04-22 19:07 | 49.74571 | 15.60672 | 39790 ft | 477 kts | 133° |
| 2026-04-22 19:07 | 49.71795 | 15.64719 | 39073 ft | 473 kts | 133° |
| 2026-04-22 19:08 | 49.69409 | 15.68194 | 38387 ft | 471 kts | 133° |
| 2026-04-22 19:08 | 49.67024 | 15.71653 | 37765 ft | 470 kts | 132° |
| 2026-04-22 19:08 | 49.65492 | 15.73872 | 37365 ft | 469 kts | 132° |
| 2026-04-22 19:08 | 49.63877 | 15.76212 | 36945 ft | 469 kts | 132° |
| 2026-04-22 19:09 | 49.62625 | 15.78028 | 36618 ft | 469 kts | 132° |
| 2026-04-22 19:09 | 49.60452 | 15.81174 | 36058 ft | 466 kts | 131° |
| 2026-04-22 19:09 | 49.58863 | 15.83468 | 35639 ft | 462 kts | 131° |
| 2026-04-22 19:09 | 49.56397 | 15.87020 | 34995 ft | 456 kts | 131° |
| 2026-04-22 19:10 | 49.54104 | 15.90325 | 34414 ft | 450 kts | 131° |
| 2026-04-22 19:10 | 49.51917 | 15.93479 | 33790 ft | 448 kts | 130° |
| 2026-04-22 19:10 | 49.49828 | 15.96488 | 33238 ft | 449 kts | 130° |
| 2026-04-22 19:10 | 49.48412 | 15.98524 | 32874 ft | 452 kts | 131° |
| 2026-04-22 19:11 | 49.47736 | 15.99494 | 32691 ft | 453 kts | 131° |
| 2026-04-22 19:11 | 49.46771 | 16.00877 | 32448 ft | 454 kts | 131° |
| 2026-04-22 19:11 | 49.44678 | 16.03871 | 31900 ft | 452 kts | 131° |
| 2026-04-22 19:11 | 49.42602 | 16.06837 | 31363 ft | 450 kts | 131° |
| 2026-04-22 19:12 | 49.40321 | 16.10101 | 30759 ft | 447 kts | 131° |
| 2026-04-22 19:12 | 49.38881 | 16.12161 | 30388 ft | 447 kts | 131° |
| 2026-04-22 19:12 | 49.36593 | 16.15428 | 29759 ft | 448 kts | 131° |
| 2026-04-22 19:12 | 49.34308 | 16.18683 | 29166 ft | 450 kts | 131° |
| 2026-04-22 19:13 | 49.31952 | 16.21843 | 28580 ft | 450 kts | 136° |
| 2026-04-22 19:13 | 49.30349 | 16.23603 | 28194 ft | 451 kts | 140° |
| 2026-04-22 19:13 | 49.29304 | 16.24611 | 27957 ft | 452 kts | 142° |
| 2026-04-22 19:13 | 49.26944 | 16.26528 | 27455 ft | 455 kts | 148° |
| 2026-04-22 19:14 | 49.24090 | 16.28620 | 26864 ft | 455 kts | 148° |
| 2026-04-22 19:14 | 49.21407 | 16.30612 | 26280 ft | 454 kts | 148° |
| 2026-04-22 19:14 | 49.19037 | 16.32375 | 25779 ft | 451 kts | 148° |
| 2026-04-22 19:14 | 49.16221 | 16.34459 | 25184 ft | 449 kts | 148° |
| 2026-04-22 19:15 | 49.14359 | 16.35829 | 24794 ft | 448 kts | 148° |
| 2026-04-22 19:15 | 49.11522 | 16.37918 | 24200 ft | 446 kts | 148° |
| 2026-04-22 19:15 | 49.09677 | 16.39279 | 23811 ft | 445 kts | 149° |
| 2026-04-22 19:15 | 49.06832 | 16.41376 | 23167 ft | 443 kts | 149° |
| 2026-04-22 19:16 | 49.04052 | 16.43417 | 22581 ft | 440 kts | 149° |
| 2026-04-22 19:16 | 49.01343 | 16.45408 | 22010 ft | 438 kts | 149° |
| 2026-04-22 19:16 | 48.98601 | 16.47416 | 21436 ft | 436 kts | 149° |
| 2026-04-22 19:16 | 48.97402 | 16.48291 | 21187 ft | 435 kts | 149° |
| 2026-04-22 19:17 | 48.95263 | 16.49858 | 20734 ft | 434 kts | 149° |
| 2026-04-22 19:17 | 48.92592 | 16.51814 | 20173 ft | 432 kts | 149° |
| 2026-04-22 19:17 | 48.89886 | 16.53792 | 19599 ft | 430 kts | 149° |
| 2026-04-22 19:17 | 48.87195 | 16.55754 | 19044 ft | 428 kts | 149° |
| 2026-04-22 19:18 | 48.85019 | 16.57339 | 18574 ft | 427 kts | 150° |
| 2026-04-22 19:18 | 48.82272 | 16.59032 | 17910 ft | 429 kts | 162° |
| 2026-04-22 19:18 | 48.79346 | 16.59530 | 17263 ft | 414 kts | 174° |
| 2026-04-22 19:18 | 48.77651 | 16.59578 | 16911 ft | 401 kts | 177° |
| 2026-04-22 19:19 | 48.76385 | 16.59564 | 16636 ft | 392 kts | 178° |
| 2026-04-22 19:19 | 48.74337 | 16.59554 | 16205 ft | 378 kts | 176° |
| 2026-04-22 19:19 | 48.71857 | 16.59705 | 15646 ft | 363 kts | 174° |
| 2026-04-22 19:19 | 48.69752 | 16.59913 | 15174 ft | 346 kts | 174° |
| 2026-04-22 19:20 | 48.67457 | 16.60080 | 14612 ft | 326 kts | 175° |
| 2026-04-22 19:20 | 48.65169 | 16.60152 | 14126 ft | 331 kts | 180° |
| 2026-04-22 19:20 | 48.62898 | 16.59600 | 13592 ft | 328 kts | 192° |
| 2026-04-22 19:20 | 48.60732 | 16.58754 | 13060 ft | 322 kts | 194° |
| 2026-04-22 19:21 | 48.59266 | 16.58141 | 12695 ft | 318 kts | 195° |
| 2026-04-22 19:21 | 48.57469 | 16.57380 | 12210 ft | 295 kts | 195° |
| 2026-04-22 19:21 | 48.55494 | 16.56551 | 11694 ft | 294 kts | 195° |
| 2026-04-22 19:21 | 48.53978 | 16.55920 | 11303 ft | 294 kts | 195° |
| 2026-04-22 19:22 | 48.52039 | 16.55122 | 10944 ft | 285 kts | 195° |
| 2026-04-22 19:22 | 48.50173 | 16.54367 | 10736 ft | 275 kts | 195° |
| 2026-04-22 19:22 | 48.48642 | 16.53749 | 10406 ft | 275 kts | 195° |
| 2026-04-22 19:22 | 48.47400 | 16.53253 | 10174 ft | 273 kts | 195° |
| 2026-04-22 19:23 | 48.45258 | 16.52404 | 9684 ft | 270 kts | 195° |
| 2026-04-22 19:23 | 48.43446 | 16.51692 | 9285 ft | 268 kts | 195° |
| 2026-04-22 19:23 | 48.42229 | 16.51217 | 9016 ft | 267 kts | 195° |
| 2026-04-22 19:23 | 48.41048 | 16.50759 | 8762 ft | 267 kts | 195° |
| 2026-04-22 19:24 | 48.39241 | 16.50062 | 8387 ft | 264 kts | 193° |
| 2026-04-22 19:24 | 48.37434 | 16.50181 | 7949 ft | 262 kts | 160° |
| 2026-04-22 19:24 | 48.35770 | 16.51258 | 7591 ft | 259 kts | 152° |
| 2026-04-22 19:24 | 48.34164 | 16.52444 | 7315 ft | 256 kts | 152° |
| 2026-04-22 19:25 | 48.32554 | 16.53552 | 7077 ft | 254 kts | 154° |
| 2026-04-22 19:25 | 48.31027 | 16.54563 | 6844 ft | 256 kts | 154° |
| 2026-04-22 19:25 | 48.29392 | 16.55654 | 6595 ft | 258 kts | 154° |
| 2026-04-22 19:25 | 48.27759 | 16.56754 | 6406 ft | 255 kts | 154° |
| 2026-04-22 19:26 | 48.26147 | 16.57841 | 6267 ft | 253 kts | 154° |
| 2026-04-22 19:26 | 48.25081 | 16.58559 | 6181 ft | 255 kts | 154° |
| 2026-04-22 19:26 | 48.23431 | 16.59669 | 6051 ft | 256 kts | 154° |
| 2026-04-22 19:26 | 48.21810 | 16.60755 | 6004 ft | 253 kts | 154° |
| 2026-04-22 19:27 | 48.20750 | 16.61465 | 6002 ft | 252 kts | 154° |
| 2026-04-22 19:27 | 48.19724 | 16.62196 | 5999 ft | 253 kts | 148° |
| 2026-04-22 19:27 | 48.18543 | 16.63567 | 5979 ft | 247 kts | 131° |
| 2026-04-22 19:27 | 48.17277 | 16.66353 | 5398 ft | 244 kts | 111° |
| 2026-04-22 19:28 | 48.16546 | 16.68635 | 5054 ft | 243 kts | 111° |
| 2026-04-22 19:28 | 48.15797 | 16.70892 | 4686 ft | 242 kts | 112° |
| 2026-04-22 19:28 | 48.15558 | 16.71608 | 4575 ft | 242 kts | 112° |
| 2026-04-22 19:28 | 48.14874 | 16.73668 | 4374 ft | 235 kts | 111° |
| 2026-04-22 19:29 | 48.14170 | 16.75789 | 4361 ft | 221 kts | 111° |
| 2026-04-22 19:29 | 48.13578 | 16.77576 | 4166 ft | 219 kts | 111° |
| 2026-04-22 19:29 | 48.12957 | 16.79462 | 4000 ft | 216 kts | 111° |
| 2026-04-22 19:29 | 48.12295 | 16.81454 | 3992 ft | 213 kts | 111° |
| 2026-04-22 19:30 | 48.11850 | 16.82804 | 3990 ft | 217 kts | 111° |
| 2026-04-22 19:30 | 48.10953 | 16.85514 | 3995 ft | 221 kts | 111° |
| 2026-04-22 19:30 | 48.10266 | 16.87572 | 3985 ft | 220 kts | 111° |
| 2026-04-22 19:30 | 48.09582 | 16.89623 | 3985 ft | 220 kts | 111° |
| 2026-04-22 19:31 | 48.08892 | 16.91694 | 3986 ft | 219 kts | 111° |
| 2026-04-22 19:31 | 48.08224 | 16.93702 | 3978 ft | 219 kts | 111° |
| 2026-04-22 19:31 | 48.07639 | 16.95458 | 3980 ft | 218 kts | 111° |
| 2026-04-22 19:31 | 48.07119 | 16.96994 | 3975 ft | 218 kts | 114° |
| 2026-04-22 19:32 | 48.06118 | 16.98458 | 3965 ft | 227 kts | 149° |
| 2026-04-22 19:32 | 48.04560 | 16.98861 | 3968 ft | 232 kts | 188° |
| 2026-04-22 19:32 | 48.03028 | 16.98132 | 3979 ft | 231 kts | 204° |
| 2026-04-22 19:32 | 48.01548 | 16.97220 | 3983 ft | 228 kts | 205° |
| 2026-04-22 19:33 | 48.00220 | 16.96229 | 3953 ft | 213 kts | 224° |
| 2026-04-22 19:33 | 47.99498 | 16.94488 | 3971 ft | 190 kts | 264° |
| 2026-04-22 19:33 | 47.99581 | 16.92716 | 3978 ft | 176 kts | 295° |
| 2026-04-22 19:33 | 48.00024 | 16.91107 | 3988 ft | 178 kts | 300° |
| 2026-04-22 19:34 | 48.00531 | 16.89435 | 3981 ft | 176 kts | 301° |
| 2026-04-22 19:34 | 48.01066 | 16.87799 | 3977 ft | 176 kts | 303° |
| 2026-04-22 19:34 | 48.01604 | 16.86157 | 3991 ft | 177 kts | 301° |
| 2026-04-22 19:34 | 48.02145 | 16.84488 | 3994 ft | 178 kts | 302° |
| 2026-04-22 19:35 | 48.02691 | 16.82824 | 3998 ft | 179 kts | 302° |
| 2026-04-22 19:35 | 48.03228 | 16.81174 | 3999 ft | 178 kts | 302° |
| 2026-04-22 19:35 | 48.03597 | 16.80039 | 3905 ft | 181 kts | 302° |
| 2026-04-22 19:35 | 48.04088 | 16.78528 | 3702 ft | 180 kts | 302° |
| 2026-04-22 19:36 | 48.04560 | 16.77074 | 3498 ft | 177 kts | 302° |
| 2026-04-22 19:36 | 48.05095 | 16.75428 | 3257 ft | 176 kts | 302° |
| 2026-04-22 19:36 | 48.05634 | 16.73785 | 3012 ft | 175 kts | 302° |
| 2026-04-22 19:36 | 48.06167 | 16.72155 | 2783 ft | 173 kts | 302° |
| 2026-04-22 19:37 | 48.06691 | 16.70539 | 2547 ft | 172 kts | 302° |
| 2026-04-22 19:37 | 48.07215 | 16.68927 | 2313 ft | 172 kts | 302° |
| 2026-04-22 19:37 | 48.07704 | 16.67406 | 2092 ft | 151 kts | 302° |
| 2026-04-22 19:37 | 48.07990 | 16.66527 | 1939 ft | 141 kts | 304° |
| 2026-04-22 19:38 | 48.08435 | 16.65185 | 1760 ft | 148 kts | 303° |
| 2026-04-22 19:38 | 48.08879 | 16.63798 | 1642 ft | 138 kts | 301° |
| 2026-04-22 19:38 | 48.09331 | 16.62430 | 1380 ft | 148 kts | 301° |
| 2026-04-22 19:38 | 48.09746 | 16.61123 | 1124 ft | 129 kts | 298° |
| 2026-04-22 19:39 | 48.10098 | 16.60015 | 965 ft | 118 kts | 298° |
| 2026-04-22 19:39 | 48.10371 | 16.59193 | 848 ft | 120 kts | 297° |
| 2026-04-22 19:39 | 48.10733 | 16.58075 | 703 ft | 119 kts | 298° |
| 2026-04-22 19:39 | 48.11088 | 16.56997 | 612 ft | 107 kts | 298° |
| 2026-04-22 19:40 | 48.11359 | 16.56156 | 603 ft | 73 kts | 295° |
| 2026-04-22 19:40 | 48.11469 | 16.55828 | 603 ft | 57 kts | 296° |
| 2026-04-22 19:40 | 48.11642 | 16.55379 | 603 ft | 45 kts | 311° |
| 2026-04-22 19:40 | 48.11841 | 16.55138 | 603 ft | 8 kts | 345° |
| 2026-04-22 19:41 | 48.11864 | 16.55136 | 603 ft | 0 kts | 3° |
| 2026-04-22 19:41 | 48.11894 | 16.55120 | 603 ft | 16 kts | 322° |
| 2026-04-22 19:41 | 48.11996 | 16.54857 | 603 ft | 39 kts | 296° |
| 2026-04-22 19:42 | 48.12134 | 16.54435 | 603 ft | 50 kts | 295° |
| 2026-04-22 19:42 | 48.12280 | 16.53990 | 603 ft | 43 kts | 296° |
| 2026-04-22 19:42 | 48.12395 | 16.53651 | 603 ft | 26 kts | 314° |
| 2026-04-22 19:42 | 48.12518 | 16.53629 | 603 ft | 20 kts | 13° |
| 2026-04-22 19:43 | 48.12597 | 16.53611 | 603 ft | 0 kts | 296° |